createdAt,value
2022-12-01T00:04:04.855Z,76.59
2022-12-01T00:09:12.143Z,76.40
2022-12-01T00:14:17.927Z,76.39
2022-12-01T00:19:25.160Z,75.98
2022-12-01T00:24:28.605Z,75.95
2022-12-01T00:29:32.011Z,76.33
2022-12-01T00:34:35.381Z,76.15
2022-12-01T00:39:40.024Z,76.02
2022-12-01T00:44:43.299Z,75.93
2022-12-01T00:49:47.280Z,76.02
2022-12-01T00:54:51.315Z,76.00
2022-12-01T00:59:54.590Z,75.69
2022-12-01T01:04:57.694Z,75.68
2022-12-01T01:10:01.107Z,75.71
2022-12-01T01:15:07.687Z,75.42
2022-12-01T01:20:11.382Z,75.51
2022-12-01T01:25:15.564Z,75.05
2022-12-01T01:30:20.549Z,75.12
2022-12-01T01:35:24.027Z,74.75
2022-12-01T01:40:27.347Z,74.91
2022-12-01T01:45:30.879Z,74.90
2022-12-01T01:50:35.645Z,74.66
2022-12-01T01:55:39.406Z,75.18
2022-12-01T02:00:44.983Z,74.93
2022-12-01T02:05:48.625Z,75.09
2022-12-01T02:11:23.294Z,74.93
2022-12-01T02:16:49.095Z,74.86
2022-12-01T02:22:23.972Z,74.91
2022-12-01T02:27:48.415Z,74.63
2022-12-01T02:33:00.348Z,74.94
2022-12-01T02:38:09.913Z,74.98
2022-12-01T02:43:27.777Z,74.85
2022-12-01T02:48:35.116Z,74.87
2022-12-01T02:53:38.603Z,74.71
2022-12-01T02:58:44.951Z,74.49
2022-12-01T03:04:01.262Z,74.75
2022-12-01T03:09:07.323Z,74.69
2022-12-01T03:14:31.127Z,74.45
2022-12-01T03:19:44.868Z,74.59
2022-12-01T03:24:50.166Z,74.41
2022-12-01T03:29:59.304Z,74.75
2022-12-01T03:35:11.626Z,74.46
2022-12-01T03:40:19.121Z,74.61
2022-12-01T03:45:33.696Z,74.41
2022-12-01T03:50:56.027Z,74.62
2022-12-01T03:56:03.853Z,74.45
2022-12-01T04:01:08.846Z,74.33
2022-12-01T04:06:13.725Z,73.82
2022-12-01T04:11:17.245Z,73.59
2022-12-01T04:16:20.794Z,73.07
2022-12-01T04:21:24.548Z,72.84
2022-12-01T04:26:33.742Z,72.47
2022-12-01T04:31:37.483Z,72.71
2022-12-01T04:36:41.275Z,72.31
2022-12-01T04:41:45.512Z,72.21
2022-12-01T04:46:48.879Z,71.59
2022-12-01T04:51:53.075Z,71.54
2022-12-01T04:56:56.485Z,71.39
2022-12-01T05:02:00.390Z,71.71
2022-12-01T05:07:06.502Z,71.83
2022-12-01T05:12:09.919Z,72.23
2022-12-01T05:17:13.471Z,72.46
2022-12-01T05:22:16.758Z,72.61
2022-12-01T05:27:20.231Z,72.89
2022-12-01T05:32:23.883Z,73.20
2022-12-01T05:37:27.064Z,73.50
2022-12-01T05:42:30.445Z,73.29
2022-12-01T05:47:33.558Z,73.75
2022-12-01T05:52:37.191Z,73.11
2022-12-01T05:57:40.651Z,72.35
2022-12-01T06:02:44.366Z,71.78
2022-12-01T06:07:49.447Z,72.21
2022-12-01T06:12:52.731Z,72.93
2022-12-01T06:17:59.595Z,72.92
2022-12-01T06:23:03.467Z,73.26
2022-12-01T06:28:06.909Z,73.23
2022-12-01T06:33:10.314Z,73.13
2022-12-01T06:38:13.849Z,73.62
2022-12-01T06:43:17.211Z,73.61
2022-12-01T06:48:21.759Z,73.16
2022-12-01T06:53:25.317Z,72.95
2022-12-01T06:58:29.029Z,72.87
2022-12-01T07:03:32.610Z,72.42
2022-12-01T07:08:36.314Z,72.55
2022-12-01T07:13:41.414Z,72.42
2022-12-01T07:18:44.757Z,72.15
2022-12-01T07:23:48.311Z,71.99
2022-12-01T07:28:53.441Z,71.90
2022-12-01T07:33:57.102Z,71.80
2022-12-01T07:39:04.683Z,71.76
2022-12-01T07:44:10.970Z,71.68
2022-12-01T07:49:14.243Z,71.58
2022-12-01T07:54:17.857Z,71.36
2022-12-01T07:59:21.282Z,71.05
2022-12-01T08:04:24.774Z,70.61
2022-12-01T08:09:28.258Z,70.69
2022-12-01T08:14:31.755Z,70.30
2022-12-01T08:19:35.465Z,70.24
2022-12-01T08:24:39.220Z,70.17
2022-12-01T08:29:44.906Z,70.13
2022-12-01T08:34:53.307Z,69.37
2022-12-01T08:39:57.934Z,69.48
2022-12-01T08:45:01.332Z,69.62
2022-12-01T08:50:13.302Z,69.37
2022-12-01T08:55:31.012Z,68.82
2022-12-01T09:00:42.587Z,68.23
2022-12-01T09:05:45.798Z,68.19
2022-12-01T09:10:53.193Z,67.76
2022-12-01T09:16:07.689Z,67.47
2022-12-01T09:21:18.528Z,67.18
2022-12-01T09:26:22.238Z,66.71
2022-12-01T09:31:26.471Z,66.29
2022-12-01T09:36:31.583Z,66.07
2022-12-01T09:41:44.513Z,65.65
2022-12-01T09:46:56.303Z,65.43
2022-12-01T09:52:00.414Z,65.32
2022-12-01T09:57:04.317Z,64.85
2022-12-01T10:02:26.579Z,64.71
2022-12-01T10:08:05.928Z,64.64
2022-12-01T10:13:23.289Z,64.11
2022-12-01T10:18:32.398Z,63.21
2022-12-01T10:24:09.929Z,63.23
2022-12-01T10:29:31.601Z,62.64
2022-12-01T10:34:38.822Z,62.64
2022-12-01T10:39:44.714Z,61.93
2022-12-01T10:44:48.219Z,62.05
2022-12-01T10:49:53.146Z,61.63
2022-12-01T10:54:58.150Z,61.81
2022-12-01T11:00:07.209Z,61.36
2022-12-01T11:05:24.024Z,61.81
2022-12-01T11:10:30.732Z,61.35
2022-12-01T11:15:40.053Z,61.57
2022-12-01T11:20:43.746Z,61.74
2022-12-01T11:25:56.183Z,61.76
2022-12-01T11:31:02.902Z,61.78
2022-12-01T11:36:10.611Z,61.68
2022-12-01T11:41:37.774Z,61.85
2022-12-01T11:46:50.199Z,61.95
2022-12-01T11:52:17.601Z,62.01
2022-12-01T11:57:33.557Z,61.51
2022-12-01T12:03:06.944Z,61.69
2022-12-01T12:08:31.621Z,61.80
2022-12-01T12:14:01.209Z,61.67
2022-12-01T12:19:33.677Z,61.65
2022-12-01T12:25:10.013Z,61.54
2022-12-01T12:30:23.834Z,61.83
2022-12-01T12:35:58.282Z,61.66
2022-12-01T12:41:22.757Z,61.72
2022-12-01T12:46:37.728Z,61.75
2022-12-01T12:52:22.056Z,61.83
2022-12-01T12:57:44.716Z,62.32
2022-12-01T13:03:10.252Z,62.58
2022-12-01T13:08:23.810Z,62.56
2022-12-01T13:13:46.330Z,62.49
2022-12-01T13:19:13.621Z,62.85
2022-12-01T13:24:23.313Z,62.89
2022-12-01T13:29:40.885Z,62.92
2022-12-01T13:34:48.475Z,63.32
2022-12-01T13:39:55.091Z,63.38
2022-12-01T13:45:09.960Z,63.21
2022-12-01T13:50:41.032Z,63.39
2022-12-01T13:56:24.509Z,63.50
2022-12-01T14:01:28.000Z,63.82
2022-12-01T14:06:40.866Z,63.87
2022-12-01T14:11:59.669Z,63.92
2022-12-01T14:17:03.756Z,64.18
2022-12-01T14:22:33.882Z,64.56
2022-12-01T14:27:43.176Z,64.74
2022-12-01T14:32:46.457Z,64.96
2022-12-01T14:37:50.534Z,65.25
2022-12-01T14:42:57.254Z,65.60
2022-12-01T14:48:04.440Z,65.82
2022-12-01T14:53:36.612Z,65.93
2022-12-01T14:58:50.680Z,65.94
2022-12-01T15:03:58.970Z,65.83
2022-12-01T15:14:48.112Z,66.49
2022-12-01T15:19:52.217Z,66.54
2022-12-01T15:25:16.033Z,66.88
2022-12-01T15:30:19.203Z,66.81
2022-12-01T15:35:23.878Z,67.04
2022-12-01T15:45:57.877Z,67.76
2022-12-01T15:51:07.386Z,67.84
2022-12-01T15:56:12.385Z,68.16
2022-12-01T16:01:19.324Z,68.46
2022-12-01T16:06:27.432Z,68.55
2022-12-01T16:11:31.388Z,68.75
2022-12-01T16:16:46.631Z,68.83
2022-12-01T16:21:50.023Z,69.07
2022-12-01T16:26:59.322Z,69.26
2022-12-01T16:32:38.918Z,69.12
2022-12-01T16:37:42.720Z,69.39
2022-12-01T16:42:46.769Z,69.40
2022-12-01T16:47:50.056Z,69.57
2022-12-01T16:52:53.483Z,69.77
2022-12-01T16:57:56.907Z,69.96
2022-12-01T17:03:01.116Z,70.22
2022-12-01T17:08:05.154Z,70.27
2022-12-01T17:13:10.768Z,70.44
2022-12-01T17:18:15.756Z,70.81
2022-12-01T17:23:18.976Z,70.71
2022-12-01T17:28:22.566Z,70.89
2022-12-01T17:33:25.909Z,71.01
2022-12-01T17:38:29.404Z,71.17
2022-12-01T17:43:34.848Z,70.99
2022-12-01T17:48:46.262Z,70.95
2022-12-01T17:53:49.762Z,71.23
2022-12-01T17:58:53.108Z,71.24
2022-12-01T18:03:57.837Z,71.45
2022-12-01T18:09:01.214Z,71.49
2022-12-01T18:14:04.637Z,71.71
2022-12-01T18:19:10.063Z,71.82
2022-12-01T18:24:13.542Z,72.12
2022-12-01T18:29:20.165Z,72.23
2022-12-01T18:34:24.147Z,72.23
2022-12-01T18:39:27.898Z,72.42
2022-12-01T18:44:33.357Z,72.41
2022-12-01T18:49:36.772Z,72.29
2022-12-01T18:54:40.517Z,72.21
2022-12-01T18:59:43.910Z,71.92
2022-12-01T19:04:47.630Z,71.81
2022-12-01T19:09:52.156Z,71.22
2022-12-01T19:14:55.847Z,70.91
2022-12-01T19:20:00.422Z,70.25
2022-12-01T19:25:03.917Z,70.13
2022-12-01T19:30:10.989Z,70.04
2022-12-01T19:35:14.681Z,69.96
2022-12-01T19:40:19.318Z,69.80
2022-12-01T19:45:23.035Z,69.42
2022-12-01T19:50:28.463Z,69.38
2022-12-01T19:55:32.376Z,68.79
2022-12-01T20:00:35.753Z,68.24
2022-12-01T20:05:39.508Z,67.72
2022-12-01T20:10:47.865Z,66.82
2022-12-01T20:15:51.243Z,66.75
2022-12-01T20:21:11.470Z,66.51
2022-12-01T20:26:16.339Z,65.46
2022-12-01T20:31:25.540Z,65.30
2022-12-01T20:36:29.494Z,64.82
2022-12-01T20:41:32.959Z,64.57
2022-12-01T20:46:38.545Z,64.49
2022-12-01T20:51:42.140Z,63.95
2022-12-01T20:56:46.013Z,64.18
2022-12-01T21:01:49.718Z,63.93
2022-12-01T21:06:58.520Z,64.04
2022-12-01T21:12:03.528Z,63.92
2022-12-01T21:17:28.819Z,64.05
2022-12-01T21:22:32.330Z,63.98
2022-12-01T21:27:36.436Z,63.80
2022-12-01T21:32:43.879Z,63.60
2022-12-01T21:37:49.542Z,63.42
2022-12-01T21:42:53.431Z,63.54
2022-12-01T21:48:17.535Z,63.77
2022-12-01T21:53:22.612Z,63.42
2022-12-01T21:58:28.655Z,63.05
2022-12-01T22:03:43.507Z,62.95
2022-12-01T22:08:50.294Z,62.75
2022-12-01T22:14:13.028Z,62.61
2022-12-01T22:19:28.704Z,62.46
2022-12-01T22:24:38.071Z,61.91
2022-12-01T22:29:46.160Z,61.94
2022-12-01T22:34:53.694Z,62.05
2022-12-01T22:39:57.768Z,62.12
2022-12-01T22:45:23.674Z,62.39
2022-12-01T22:50:31.731Z,62.01
2022-12-01T22:55:35.232Z,61.78
2022-12-01T23:00:39.365Z,61.84
2022-12-01T23:05:42.695Z,61.95
2022-12-01T23:10:46.130Z,61.70
2022-12-01T23:15:52.884Z,61.74
2022-12-01T23:20:58.975Z,61.72
2022-12-01T23:26:07.179Z,62.19
2022-12-01T23:31:10.869Z,62.02
2022-12-01T23:36:19.256Z,61.91
2022-12-01T23:41:31.225Z,62.07
2022-12-01T23:46:34.625Z,62.24
2022-12-01T23:51:40.412Z,61.89
2022-12-01T23:56:45.856Z,62.22
